createdAt,value
2018-09-30T00:00:03.040Z,25.80
2018-09-30T00:02:32.377Z,25.80
2018-09-30T00:05:01.777Z,25.70
2018-09-30T00:07:31.101Z,25.70
2018-09-30T00:10:00.461Z,25.70
2018-09-30T00:12:29.860Z,25.70
2018-09-30T00:14:59.176Z,25.70
2018-09-30T00:17:28.565Z,25.70
2018-09-30T00:19:57.989Z,25.70
2018-09-30T00:22:27.340Z,25.70
2018-09-30T00:25:01.646Z,25.70
2018-09-30T00:27:30.947Z,25.60
2018-09-30T00:30:00.305Z,25.60
2018-09-30T00:32:29.709Z,25.60
2018-09-30T00:34:59.104Z,25.60
2018-09-30T00:37:28.544Z,25.60
2018-09-30T00:39:58.128Z,25.60
2018-09-30T00:42:27.477Z,25.60
2018-09-30T00:44:56.797Z,25.60
2018-09-30T00:47:26.220Z,25.60
2018-09-30T00:49:55.553Z,25.60
2018-09-30T00:52:24.969Z,25.50
2018-09-30T00:54:54.353Z,25.50
2018-09-30T00:57:23.709Z,25.50
2018-09-30T00:59:53.090Z,25.50
2018-09-30T01:02:22.492Z,25.50
2018-09-30T01:04:51.855Z,25.50
2018-09-30T01:07:21.261Z,25.50
2018-09-30T01:09:50.635Z,25.50
2018-09-30T01:12:20.048Z,25.50
2018-09-30T01:14:49.390Z,25.40
2018-09-30T01:17:18.836Z,25.40
2018-09-30T01:19:48.161Z,25.40
2018-09-30T01:22:17.521Z,25.50
2018-09-30T01:24:46.908Z,25.40
2018-09-30T01:27:19.336Z,25.40
2018-09-30T01:29:48.770Z,25.40
2018-09-30T01:32:18.140Z,25.40
2018-09-30T01:34:47.488Z,25.40
2018-09-30T01:37:16.980Z,25.40
2018-09-30T01:39:46.394Z,25.40
2018-09-30T01:42:15.752Z,25.40
2018-09-30T01:44:45.128Z,25.40
2018-09-30T01:47:14.461Z,25.40
2018-09-30T01:49:43.768Z,25.40
2018-09-30T01:52:23.997Z,25.40
2018-09-30T01:54:53.352Z,25.40
2018-09-30T01:57:22.725Z,25.40
2018-09-30T01:59:52.121Z,25.40
2018-09-30T02:02:21.472Z,25.40
2018-09-30T02:04:50.797Z,25.40
2018-09-30T02:07:20.180Z,25.30
2018-09-30T02:09:49.511Z,25.30
2018-09-30T02:12:18.849Z,25.30
2018-09-30T02:14:48.312Z,25.30
2018-09-30T02:17:17.684Z,25.30
2018-09-30T02:19:47.027Z,25.30
2018-09-30T02:22:16.404Z,25.30
2018-09-30T02:24:45.864Z,25.30
2018-09-30T02:27:15.201Z,25.30
2018-09-30T02:29:44.624Z,25.20
2018-09-30T02:32:13.940Z,25.20
2018-09-30T02:34:43.291Z,25.20
2018-09-30T02:37:12.678Z,25.20
2018-09-30T02:39:42.052Z,25.20
2018-09-30T02:42:12.097Z,25.30
2018-09-30T02:44:41.449Z,25.30
2018-09-30T02:47:10.818Z,25.30
2018-09-30T02:49:40.332Z,25.30
2018-09-30T02:52:09.747Z,25.30
2018-09-30T02:54:39.120Z,25.20
2018-09-30T02:57:08.507Z,25.20
2018-09-30T02:59:37.952Z,25.20
2018-09-30T03:02:07.476Z,25.20
2018-09-30T03:04:36.830Z,25.20
2018-09-30T03:07:11.258Z,25.20
2018-09-30T03:09:42.988Z,25.20
2018-09-30T03:12:12.600Z,25.20
2018-09-30T03:14:42.132Z,25.20
2018-09-30T03:17:11.472Z,25.20
2018-09-30T03:19:40.824Z,25.20
2018-09-30T03:22:10.217Z,25.10
2018-09-30T03:24:39.608Z,25.10
2018-09-30T03:27:08.976Z,25.10
2018-09-30T03:29:38.372Z,25.10
2018-09-30T03:32:07.784Z,25.00
2018-09-30T03:34:37.184Z,25.00
2018-09-30T03:37:06.572Z,25.00
2018-09-30T03:39:35.928Z,25.00
2018-09-30T03:42:05.415Z,25.00
2018-09-30T03:44:34.768Z,25.00
2018-09-30T03:47:04.162Z,25.00
2018-09-30T03:49:33.514Z,25.00
2018-09-30T03:52:02.879Z,25.00
2018-09-30T03:54:32.180Z,25.00
2018-09-30T03:57:01.620Z,24.90
2018-09-30T03:59:30.964Z,24.90
2018-09-30T04:02:00.316Z,24.90
2018-09-30T04:04:29.678Z,24.90
2018-09-30T04:06:59.021Z,24.90
2018-09-30T04:09:28.384Z,24.90
2018-09-30T04:11:57.800Z,24.90
2018-09-30T04:14:27.241Z,24.90
2018-09-30T04:16:56.723Z,24.80
2018-09-30T04:19:26.021Z,24.80
2018-09-30T04:21:55.441Z,24.80
2018-09-30T04:24:24.816Z,24.80
2018-09-30T04:26:54.174Z,24.80
2018-09-30T04:29:23.508Z,24.80
2018-09-30T04:31:52.859Z,24.80
2018-09-30T04:34:22.243Z,24.80
2018-09-30T04:36:51.598Z,24.80
2018-09-30T04:39:20.965Z,24.80
2018-09-30T04:41:50.420Z,24.80
2018-09-30T04:44:19.766Z,24.80
2018-09-30T04:46:49.120Z,24.80
2018-09-30T04:49:18.536Z,24.80
2018-09-30T04:51:47.954Z,24.80
2018-09-30T04:54:17.416Z,24.70
2018-09-30T04:56:46.764Z,24.80
2018-09-30T04:59:16.267Z,24.80
2018-09-30T05:01:45.633Z,24.80
2018-09-30T05:04:15.045Z,24.70
2018-09-30T05:06:44.360Z,24.80
2018-09-30T05:09:13.685Z,24.80
2018-09-30T05:11:43.144Z,24.80
2018-09-30T05:14:12.500Z,24.80
2018-09-30T05:16:41.833Z,24.80
2018-09-30T05:19:11.218Z,24.80
2018-09-30T05:21:40.592Z,24.80
2018-09-30T05:24:09.955Z,24.80
2018-09-30T05:26:39.317Z,24.80
2018-09-30T05:29:08.668Z,24.80
2018-09-30T05:31:38.148Z,24.80
2018-09-30T05:34:07.627Z,24.80
2018-09-30T05:36:37.131Z,24.80
2018-09-30T05:39:09.340Z,24.80
2018-09-30T05:41:38.752Z,24.80
2018-09-30T05:44:09.772Z,24.80
2018-09-30T05:46:39.521Z,24.80
2018-09-30T05:49:09.133Z,24.80
2018-09-30T05:51:38.664Z,24.80
2018-09-30T05:54:08.084Z,24.80
2018-09-30T05:56:37.496Z,24.80
2018-09-30T05:59:06.964Z,24.80
2018-09-30T06:01:36.332Z,24.80
2018-09-30T06:04:05.920Z,24.70
2018-09-30T06:06:35.224Z,24.80
2018-09-30T06:09:06.626Z,24.70
2018-09-30T06:11:36.096Z,24.80
2018-09-30T06:14:07.503Z,24.80
2018-09-30T06:16:36.943Z,24.80
2018-09-30T06:19:06.652Z,24.90
2018-09-30T06:21:36.092Z,24.90
2018-09-30T06:24:05.551Z,24.90
2018-09-30T06:26:35.020Z,24.90
2018-09-30T06:29:04.744Z,24.90
2018-09-30T06:31:34.338Z,24.90
2018-09-30T06:34:03.725Z,24.90
2018-09-30T06:36:33.098Z,24.90
2018-09-30T06:39:02.582Z,24.90
2018-09-30T06:41:31.936Z,25.00
2018-09-30T06:44:01.652Z,25.00
2018-09-30T06:46:30.989Z,25.00
2018-09-30T06:49:00.301Z,25.10
2018-09-30T06:51:29.658Z,25.10
2018-09-30T06:53:59.042Z,25.10
2018-09-30T06:56:29.002Z,25.10
2018-09-30T06:58:58.461Z,25.10
2018-09-30T07:01:27.863Z,25.20
2018-09-30T07:03:57.272Z,25.20
2018-09-30T07:06:26.624Z,25.20
2018-09-30T07:08:56.252Z,25.30
2018-09-30T07:11:25.701Z,25.30
2018-09-30T07:13:55.057Z,25.30
2018-09-30T07:16:24.505Z,25.30
2018-09-30T07:18:53.868Z,25.30
2018-09-30T07:21:23.329Z,25.30
2018-09-30T07:23:55.340Z,25.30
2018-09-30T07:26:24.712Z,25.30
2018-09-30T07:28:54.032Z,25.30
2018-09-30T07:31:23.437Z,25.30
2018-09-30T07:33:53.042Z,25.30
2018-09-30T07:36:22.470Z,25.30
2018-09-30T07:38:51.898Z,25.30
2018-09-30T07:41:21.300Z,25.30
2018-09-30T07:43:51.113Z,25.30
2018-09-30T07:46:20.457Z,25.30
2018-09-30T07:48:49.844Z,25.30
2018-09-30T07:51:19.181Z,25.40
2018-09-30T07:53:48.736Z,25.30
2018-09-30T07:56:18.137Z,25.40
2018-09-30T07:58:47.473Z,25.40
2018-09-30T08:01:16.903Z,25.40
2018-09-30T08:03:46.566Z,25.40
2018-09-30T08:06:16.007Z,25.40
2018-09-30T08:08:45.483Z,25.50
2018-09-30T08:11:15.012Z,25.50
2018-09-30T08:13:44.540Z,25.50
2018-09-30T08:16:13.884Z,25.50
2018-09-30T08:18:43.289Z,25.60
2018-09-30T08:21:12.684Z,25.70
2018-09-30T08:23:42.135Z,25.70
2018-09-30T08:26:11.630Z,25.60
2018-09-30T08:28:41.025Z,25.60
2018-09-30T08:31:10.441Z,25.60
2018-09-30T08:33:40.354Z,25.60
2018-09-30T08:36:10.906Z,25.60
2018-09-30T08:38:41.513Z,25.60
2018-09-30T08:41:12.120Z,25.60
2018-09-30T08:43:42.809Z,25.70
2018-09-30T08:46:12.283Z,25.80
2018-09-30T08:48:41.676Z,25.90
2018-09-30T08:51:11.100Z,26.10
2018-09-30T08:53:40.498Z,26.00
2018-09-30T08:56:09.948Z,26.00
2018-09-30T08:58:39.353Z,26.10
2018-09-30T09:01:08.813Z,26.10
2018-09-30T09:03:38.309Z,26.00
2018-09-30T09:06:07.839Z,26.00
2018-09-30T09:08:37.295Z,26.10
2018-09-30T09:11:06.926Z,26.20
2018-09-30T09:13:36.471Z,26.30
2018-09-30T09:16:05.880Z,26.30
2018-09-30T09:18:35.303Z,26.40
2018-09-30T09:21:04.824Z,26.40
2018-09-30T09:23:34.739Z,26.50
2018-09-30T09:26:04.343Z,26.50
2018-09-30T09:28:35.127Z,26.50
2018-09-30T09:31:04.660Z,26.60
2018-09-30T09:33:34.235Z,26.60
2018-09-30T09:36:04.037Z,26.70
2018-09-30T09:38:33.469Z,26.80
2018-09-30T09:41:03.159Z,26.80
2018-09-30T09:43:33.676Z,26.90
2018-09-30T09:46:03.168Z,26.90
2018-09-30T09:48:32.924Z,27.00
2018-09-30T09:51:03.893Z,27.00
2018-09-30T09:53:33.428Z,27.10
2018-09-30T09:56:04.308Z,27.10
2018-09-30T09:58:33.951Z,27.10
2018-09-30T10:01:07.338Z,27.10
2018-09-30T10:03:37.061Z,27.10
2018-09-30T10:06:06.457Z,27.10
2018-09-30T10:08:36.398Z,27.10
2018-09-30T10:11:05.845Z,27.20
2018-09-30T10:13:35.684Z,27.20
2018-09-30T10:16:05.163Z,27.30
2018-09-30T10:18:34.745Z,27.20
2018-09-30T10:21:04.297Z,27.20
2018-09-30T10:23:33.733Z,27.20
2018-09-30T10:26:03.128Z,27.20
2018-09-30T10:28:32.686Z,27.20
2018-09-30T10:31:02.141Z,27.20
2018-09-30T10:33:31.492Z,27.30
2018-09-30T10:36:00.746Z,27.30
2018-09-30T10:38:30.058Z,27.20
2018-09-30T10:40:59.287Z,27.30
2018-09-30T10:43:28.538Z,27.30
2018-09-30T10:45:57.934Z,27.30
2018-09-30T10:48:27.233Z,27.30
2018-09-30T10:50:59.339Z,27.30
2018-09-30T10:53:28.657Z,27.40
2018-09-30T10:55:57.888Z,27.40
2018-09-30T10:58:27.145Z,27.40
2018-09-30T11:00:56.420Z,27.40
2018-09-30T11:03:25.673Z,27.30
2018-09-30T11:05:55.059Z,27.30
2018-09-30T11:08:24.364Z,27.30
2018-09-30T11:10:53.605Z,27.30
2018-09-30T11:13:23.585Z,27.30
2018-09-30T11:15:52.829Z,27.20
2018-09-30T11:18:22.057Z,27.30
2018-09-30T11:20:51.324Z,27.30
2018-09-30T11:23:20.618Z,27.20
2018-09-30T11:25:49.862Z,27.10
2018-09-30T11:28:19.171Z,27.10
2018-09-30T11:30:48.408Z,27.10
2018-09-30T11:33:17.778Z,27.10
2018-09-30T11:35:47.022Z,27.10
2018-09-30T11:38:16.325Z,27.10
2018-09-30T11:40:45.622Z,27.00
2018-09-30T11:43:14.863Z,27.00
2018-09-30T11:45:44.096Z,27.00
2018-09-30T11:48:13.326Z,27.00
2018-09-30T11:50:42.652Z,27.00
2018-09-30T11:53:12.017Z,27.00
2018-09-30T11:55:41.374Z,27.00
2018-09-30T11:58:10.813Z,27.00
2018-09-30T12:00:40.094Z,27.00
2018-09-30T12:03:09.537Z,27.10
2018-09-30T12:05:39.941Z,27.00
2018-09-30T12:08:09.283Z,27.10
2018-09-30T12:10:38.689Z,27.10
2018-09-30T12:13:08.167Z,27.00
2018-09-30T12:15:37.508Z,26.90
2018-09-30T12:18:06.717Z,26.90
2018-09-30T12:20:35.985Z,26.90
2018-09-30T12:23:05.238Z,26.90
2018-09-30T12:25:34.584Z,26.80
2018-09-30T12:28:03.821Z,26.80
2018-09-30T12:30:33.117Z,26.80
2018-09-30T12:33:02.425Z,26.80
2018-09-30T12:35:31.640Z,26.80
2018-09-30T12:38:00.903Z,26.90
2018-09-30T12:40:30.145Z,26.90
2018-09-30T12:42:59.657Z,26.90
2018-09-30T12:45:28.889Z,26.90
2018-09-30T12:47:58.132Z,26.90
2018-09-30T12:50:27.458Z,26.90
2018-09-30T12:52:56.746Z,26.90
2018-09-30T12:55:26.038Z,26.90
2018-09-30T12:57:55.337Z,26.90
2018-09-30T13:00:24.671Z,26.90
2018-09-30T13:02:54.483Z,26.90
2018-09-30T13:05:23.820Z,26.90
2018-09-30T13:07:53.212Z,27.00
2018-09-30T13:10:22.544Z,27.00
2018-09-30T13:12:55.809Z,27.00
2018-09-30T13:15:25.153Z,27.00
2018-09-30T13:17:54.521Z,27.10
2018-09-30T13:20:23.951Z,27.00
2018-09-30T13:22:53.397Z,27.00
2018-09-30T13:25:22.719Z,27.00
2018-09-30T13:27:52.030Z,27.00
2018-09-30T13:30:21.372Z,27.00
2018-09-30T13:32:50.687Z,27.00
2018-09-30T13:35:19.986Z,27.00
2018-09-30T13:37:49.691Z,27.00
2018-09-30T13:40:19.159Z,27.00
2018-09-30T13:42:48.401Z,27.00
2018-09-30T13:45:17.689Z,27.00
2018-09-30T13:47:47.185Z,27.00
2018-09-30T13:50:17.868Z,27.00
2018-09-30T13:52:47.221Z,27.00
2018-09-30T13:55:16.816Z,27.00
2018-09-30T13:57:46.796Z,27.00
2018-09-30T14:00:16.309Z,27.00
2018-09-30T14:02:45.827Z,27.00
2018-09-30T14:05:15.165Z,26.90
2018-09-30T14:07:44.745Z,26.90
2018-09-30T14:10:14.236Z,26.90
2018-09-30T14:12:43.786Z,26.90
2018-09-30T14:15:13.022Z,26.90
2018-09-30T14:17:42.732Z,26.90
2018-09-30T14:20:12.046Z,26.90
2018-09-30T14:22:41.376Z,26.90
2018-09-30T14:25:10.642Z,26.90
2018-09-30T14:27:39.986Z,26.90
2018-09-30T14:30:10.089Z,26.90
2018-09-30T14:32:39.456Z,26.90
2018-09-30T14:35:08.901Z,26.90
2018-09-30T14:37:39.105Z,26.90
2018-09-30T14:40:09.427Z,26.90
2018-09-30T14:42:38.700Z,26.90
2018-09-30T14:45:08.317Z,26.90
2018-09-30T14:47:37.753Z,26.90
2018-09-30T14:50:07.122Z,26.90
2018-09-30T14:52:36.465Z,26.90
2018-09-30T14:55:05.859Z,26.90
2018-09-30T14:57:35.284Z,26.90
2018-09-30T15:00:04.663Z,26.80
2018-09-30T15:02:34.123Z,26.80
2018-09-30T15:05:03.505Z,26.80
2018-09-30T15:07:32.873Z,26.80
2018-09-30T15:10:02.157Z,26.80
2018-09-30T15:12:35.668Z,26.80
2018-09-30T15:15:06.457Z,26.80
2018-09-30T15:17:35.837Z,26.80
2018-09-30T15:20:05.425Z,26.80
2018-09-30T15:22:34.921Z,26.80
2018-09-30T15:25:04.306Z,26.80
2018-09-30T15:27:33.634Z,26.80
2018-09-30T15:30:02.890Z,26.80
2018-09-30T15:32:32.198Z,26.80
2018-09-30T15:35:01.468Z,26.80
2018-09-30T15:37:30.885Z,26.70
2018-09-30T15:40:00.295Z,26.70
2018-09-30T15:42:29.540Z,26.80
2018-09-30T15:44:58.874Z,26.80
2018-09-30T15:47:28.169Z,26.80
2018-09-30T15:49:57.461Z,26.80
2018-09-30T15:52:26.826Z,26.80
2018-09-30T15:54:56.088Z,26.80
2018-09-30T15:57:25.413Z,26.80
2018-09-30T15:59:54.670Z,26.80
2018-09-30T16:02:23.945Z,26.80
2018-09-30T16:04:53.249Z,26.80
2018-09-30T16:07:22.588Z,26.80
2018-09-30T16:09:51.908Z,26.80
2018-09-30T16:12:21.260Z,26.80
2018-09-30T16:14:50.653Z,26.80
2018-09-30T16:17:20.039Z,26.80
2018-09-30T16:19:49.437Z,26.80
2018-09-30T16:22:18.808Z,26.80
2018-09-30T16:24:48.148Z,26.80
2018-09-30T16:27:17.607Z,26.70
2018-09-30T16:29:46.991Z,26.70
2018-09-30T16:32:16.341Z,26.70
2018-09-30T16:34:45.783Z,26.70
2018-09-30T16:37:15.128Z,26.80
2018-09-30T16:39:44.559Z,26.70
2018-09-30T16:42:13.925Z,26.70
2018-09-30T16:44:43.348Z,26.70
2018-09-30T16:47:12.746Z,26.70
2018-09-30T16:49:42.136Z,26.60
2018-09-30T16:52:11.499Z,26.60
2018-09-30T16:54:40.870Z,26.70
2018-09-30T16:57:10.280Z,26.60
2018-09-30T16:59:39.794Z,26.60
2018-09-30T17:02:09.716Z,26.60
2018-09-30T17:04:39.097Z,26.60
2018-09-30T17:07:08.446Z,26.60
2018-09-30T17:09:37.936Z,26.60
2018-09-30T17:12:07.503Z,26.50
2018-09-30T17:14:37.055Z,26.60
2018-09-30T17:17:06.592Z,26.60
2018-09-30T17:19:36.020Z,26.60
2018-09-30T17:22:05.452Z,26.50
2018-09-30T17:24:34.880Z,26.50
2018-09-30T17:27:04.253Z,26.50
2018-09-30T17:29:33.724Z,26.50
2018-09-30T17:32:03.123Z,26.50
2018-09-30T17:34:32.500Z,26.50
2018-09-30T17:37:02.147Z,26.50
2018-09-30T17:39:31.503Z,26.40
2018-09-30T17:42:00.876Z,26.50
2018-09-30T17:44:30.261Z,26.50
2018-09-30T17:46:59.655Z,26.50
2018-09-30T17:49:28.988Z,26.50
2018-09-30T17:51:58.388Z,26.50
2018-09-30T17:54:27.786Z,26.50
2018-09-30T17:56:57.918Z,26.50
2018-09-30T17:59:28.037Z,26.50
2018-09-30T18:01:57.459Z,26.50
2018-09-30T18:04:27.037Z,26.40
2018-09-30T18:06:56.471Z,26.30
2018-09-30T18:09:25.881Z,26.30
2018-09-30T18:11:55.245Z,26.20
2018-09-30T18:14:24.612Z,26.20
2018-09-30T18:16:53.979Z,26.10
2018-09-30T18:19:23.332Z,26.10
2018-09-30T18:21:52.718Z,26.10
2018-09-30T18:24:22.080Z,26.10
2018-09-30T18:26:51.435Z,26.10
2018-09-30T18:29:20.797Z,26.10
2018-09-30T18:31:50.133Z,26.10
2018-09-30T18:34:19.512Z,26.10
2018-09-30T18:36:48.872Z,26.10
2018-09-30T18:39:18.209Z,26.10
2018-09-30T18:41:47.591Z,26.10
2018-09-30T18:44:17.008Z,26.00
2018-09-30T18:46:46.404Z,26.00
2018-09-30T18:49:15.852Z,26.00
2018-09-30T18:51:45.323Z,26.00
2018-09-30T18:54:14.701Z,25.90
2018-09-30T18:56:44.176Z,26.00
2018-09-30T18:59:13.556Z,26.00
2018-09-30T19:01:42.941Z,25.90
2018-09-30T19:04:12.760Z,26.00
2018-09-30T19:06:42.181Z,26.00
2018-09-30T19:09:11.512Z,26.00
2018-09-30T19:11:40.892Z,26.00
2018-09-30T19:14:10.303Z,26.00
2018-09-30T19:16:39.734Z,26.00
2018-09-30T19:19:09.190Z,26.00
2018-09-30T19:21:38.563Z,26.00
2018-09-30T19:24:08.154Z,26.00
2018-09-30T19:26:37.664Z,26.00
2018-09-30T19:29:07.068Z,26.00
2018-09-30T19:31:36.408Z,26.10
2018-09-30T19:34:05.811Z,26.10
2018-09-30T19:36:35.238Z,26.10
2018-09-30T19:39:06.128Z,26.10
2018-09-30T19:41:35.542Z,26.10
2018-09-30T19:44:05.127Z,26.10
2018-09-30T19:46:34.636Z,26.10
2018-09-30T19:49:04.200Z,26.20
2018-09-30T19:51:33.751Z,26.20
2018-09-30T19:54:03.292Z,26.20
2018-09-30T19:56:32.708Z,26.20
2018-09-30T19:59:02.116Z,26.20
2018-09-30T20:01:31.602Z,26.10
2018-09-30T20:04:00.982Z,26.10
2018-09-30T20:06:30.459Z,26.10
2018-09-30T20:08:59.922Z,26.10
2018-09-30T20:11:29.378Z,26.10
2018-09-30T20:13:58.882Z,26.10
2018-09-30T20:16:28.324Z,26.10
2018-09-30T20:18:57.748Z,26.10
2018-09-30T20:21:27.211Z,26.10
2018-09-30T20:23:56.564Z,26.10
2018-09-30T20:26:26.130Z,26.10
2018-09-30T20:28:55.651Z,26.10
2018-09-30T20:31:25.012Z,26.10
2018-09-30T20:33:54.527Z,26.10
2018-09-30T20:36:23.876Z,26.10
2018-09-30T20:38:53.273Z,26.10
2018-09-30T20:41:22.700Z,26.10
2018-09-30T20:43:52.100Z,26.10
2018-09-30T20:46:21.482Z,26.10
2018-09-30T20:48:50.882Z,26.10
2018-09-30T20:51:20.273Z,26.10
2018-09-30T20:53:49.651Z,26.10
2018-09-30T20:56:19.080Z,26.10
2018-09-30T20:58:48.596Z,26.10
2018-09-30T21:01:18.372Z,26.10
2018-09-30T21:03:47.857Z,26.10
2018-09-30T21:06:23.633Z,26.10
2018-09-30T21:08:53.030Z,26.10
2018-09-30T21:11:22.464Z,26.10
2018-09-30T21:13:51.851Z,26.10
2018-09-30T21:16:21.308Z,26.10
2018-09-30T21:18:51.729Z,26.10
2018-09-30T21:21:21.156Z,26.10
2018-09-30T21:23:50.505Z,26.10
2018-09-30T21:26:19.877Z,26.10
2018-09-30T21:28:49.344Z,26.10
2018-09-30T21:31:18.738Z,26.10
2018-09-30T21:33:48.128Z,26.10
2018-09-30T21:36:17.734Z,26.20
2018-09-30T21:38:47.172Z,26.20
2018-09-30T21:41:16.636Z,26.20
2018-09-30T21:43:46.005Z,26.20
2018-09-30T21:46:15.367Z,26.10
2018-09-30T21:48:44.853Z,26.20
2018-09-30T21:51:14.291Z,26.10
2018-09-30T21:53:43.685Z,26.10
2018-09-30T21:56:13.179Z,26.10
2018-09-30T21:58:42.588Z,26.10
2018-09-30T22:01:11.995Z,26.10
2018-09-30T22:03:42.052Z,26.10
2018-09-30T22:06:11.807Z,26.10
2018-09-30T22:08:41.177Z,26.10
2018-09-30T22:11:10.590Z,26.10
2018-09-30T22:13:40.166Z,26.10
2018-09-30T22:16:09.528Z,26.10
2018-09-30T22:18:38.951Z,26.10
2018-09-30T22:21:08.766Z,26.10
2018-09-30T22:23:38.184Z,26.10
2018-09-30T22:26:07.564Z,26.10
2018-09-30T22:28:36.875Z,26.10
2018-09-30T22:31:06.283Z,26.10
2018-09-30T22:33:35.685Z,26.10
2018-09-30T22:36:05.060Z,26.10
2018-09-30T22:38:34.461Z,26.10
2018-09-30T22:41:03.853Z,26.10
2018-09-30T22:43:33.240Z,26.10
2018-09-30T22:46:02.592Z,26.10
2018-09-30T22:48:31.952Z,26.10
2018-09-30T22:51:01.329Z,26.10
2018-09-30T22:53:30.771Z,26.10
2018-09-30T22:56:00.119Z,26.10
2018-09-30T22:58:29.442Z,26.10
2018-09-30T23:00:58.839Z,26.00
2018-09-30T23:03:28.268Z,26.00
2018-09-30T23:05:57.634Z,26.00
2018-09-30T23:08:27.052Z,26.00
2018-09-30T23:10:56.376Z,26.00
2018-09-30T23:13:25.800Z,26.00
2018-09-30T23:15:55.307Z,26.00
2018-09-30T23:18:24.745Z,25.90
2018-09-30T23:20:54.156Z,26.00
2018-09-30T23:23:23.608Z,26.00
2018-09-30T23:25:53.047Z,26.00
2018-09-30T23:28:22.508Z,26.00
2018-09-30T23:30:52.272Z,26.00
2018-09-30T23:33:21.679Z,26.00
2018-09-30T23:35:52.064Z,26.00
2018-09-30T23:38:21.596Z,26.00
2018-09-30T23:40:51.130Z,25.90
2018-09-30T23:43:20.550Z,25.90
2018-09-30T23:45:50.935Z,25.80
2018-09-30T23:48:20.920Z,25.80
2018-09-30T23:50:50.531Z,25.80
2018-09-30T23:53:20.660Z,25.80
2018-09-30T23:55:50.022Z,25.80
2018-09-30T23:58:20.408Z,25.80
